createdAt,value
2019-05-06T00:00:56.601Z,4.00
2019-05-06T00:03:24.815Z,4.15
2019-05-06T00:05:55.743Z,4.00
2019-05-06T00:08:27.276Z,3.55
2019-05-06T00:10:58.528Z,3.75
2019-05-06T00:13:29.691Z,3.83
2019-05-06T00:16:00.887Z,3.52
2019-05-06T00:18:34.272Z,3.75
2019-05-06T00:21:05.626Z,3.52
2019-05-06T00:23:41.711Z,3.40
2019-05-06T00:26:30.445Z,3.30
2019-05-06T00:29:05.867Z,3.55
2019-05-06T00:31:37.189Z,3.87
2019-05-06T00:34:08.636Z,3.65
2019-05-06T00:36:40.172Z,3.83
2019-05-06T00:39:24.364Z,3.55
2019-05-06T00:42:04.394Z,3.92
2019-05-06T00:44:35.537Z,4.20
2019-05-06T00:47:06.794Z,3.92
2019-05-06T00:49:37.970Z,3.90
2019-05-06T00:52:09.194Z,3.62
2019-05-06T00:54:43.537Z,4.67
2019-05-06T00:57:14.528Z,3.65
2019-05-06T00:59:45.971Z,4.33
2019-05-06T01:02:17.140Z,4.15
2019-05-06T01:04:48.623Z,4.40
2019-05-06T01:07:19.847Z,4.00
2019-05-06T01:09:51.027Z,4.00
2019-05-06T01:12:23.999Z,4.37
2019-05-06T01:14:56.433Z,4.45
2019-05-06T01:17:27.578Z,4.30
2019-05-06T01:19:59.427Z,4.97
2019-05-06T01:22:30.889Z,4.40
2019-05-06T01:25:03.971Z,4.15
2019-05-06T01:27:34.938Z,4.78
2019-05-06T01:30:06.832Z,4.67
2019-05-06T01:32:38.125Z,4.60
2019-05-06T01:35:09.400Z,4.08
2019-05-06T01:37:41.359Z,4.10
2019-05-06T01:40:30.231Z,3.92
2019-05-06T01:43:14.425Z,4.08
2019-05-06T01:45:46.053Z,4.20
2019-05-06T01:50:49.395Z,4.03
2019-05-06T01:53:20.937Z,4.55
2019-05-06T01:55:54.467Z,4.10
2019-05-06T01:58:25.711Z,4.08
2019-05-06T02:00:57.252Z,4.90
2019-05-06T02:03:28.477Z,4.17
2019-05-06T02:05:59.661Z,4.37
2019-05-06T02:08:30.911Z,4.83
2019-05-06T02:11:04.136Z,4.30
2019-05-06T02:13:35.686Z,4.10
2019-05-06T02:16:06.843Z,4.47
2019-05-06T02:18:37.992Z,4.30
2019-05-06T02:21:14.439Z,4.25
2019-05-06T02:23:50.334Z,4.20
2019-05-06T02:26:23.783Z,4.42
2019-05-06T02:28:56.342Z,3.92
2019-05-06T02:31:49.413Z,4.20
2019-05-06T02:34:49.066Z,4.10
2019-05-06T02:37:26.341Z,4.10
2019-05-06T02:40:05.480Z,4.08
2019-05-06T02:42:36.798Z,4.80
2019-05-06T02:45:08.971Z,4.47
2019-05-06T02:47:49.755Z,3.70
2019-05-06T02:50:23.895Z,4.33
2019-05-06T02:52:55.698Z,4.00
2019-05-06T02:55:26.943Z,4.10
2019-05-06T02:57:58.225Z,4.37
2019-05-06T03:00:29.758Z,4.10
2019-05-06T03:03:02.883Z,4.17
2019-05-06T03:05:34.548Z,4.12
2019-05-06T03:08:06.108Z,3.87
2019-05-06T03:10:37.656Z,4.28
2019-05-06T03:13:09.170Z,4.40
2019-05-06T03:15:43.108Z,4.03
2019-05-06T03:18:15.092Z,4.15
2019-05-06T03:21:04.102Z,4.28
2019-05-06T03:23:37.758Z,4.00
2019-05-06T03:26:08.971Z,4.35
2019-05-06T03:28:43.586Z,4.17
2019-05-06T03:31:16.488Z,4.17
2019-05-06T03:34:03.791Z,4.17
2019-05-06T03:36:27.279Z,4.75
2019-05-06T03:38:54.021Z,4.22
2019-05-06T03:43:57.006Z,4.05
2019-05-06T03:46:47.097Z,4.20
2019-05-06T03:49:18.293Z,4.17
2019-05-06T03:51:49.619Z,4.50
2019-05-06T03:54:23.203Z,4.00
2019-05-06T03:56:54.951Z,4.15
2019-05-06T03:59:27.426Z,4.42
2019-05-06T04:01:58.653Z,4.33
2019-05-06T04:04:32.978Z,4.75
2019-05-06T04:07:03.570Z,4.42
2019-05-06T04:09:36.787Z,4.53
2019-05-06T04:12:09.168Z,4.53
2019-05-06T04:14:43.139Z,5.15
2019-05-06T04:17:38.959Z,4.78
2019-05-06T04:20:19.919Z,4.40
2019-05-06T04:22:58.083Z,4.60
2019-05-06T04:25:47.582Z,5.20
2019-05-06T04:28:23.853Z,4.72
2019-05-06T04:30:55.020Z,4.15
2019-05-06T04:33:26.894Z,4.37
2019-05-06T04:38:28.295Z,4.47
2019-05-06T04:41:02.752Z,4.47
2019-05-06T04:43:33.979Z,4.87
2019-05-06T04:46:05.355Z,4.80
2019-05-06T04:48:36.669Z,4.78
2019-05-06T04:51:08.143Z,5.00
2019-05-06T04:53:39.307Z,4.45
2019-05-06T04:56:10.527Z,5.00
2019-05-06T04:58:42.866Z,5.15
2019-05-06T05:01:15.744Z,4.92
2019-05-06T05:03:47.900Z,4.55
2019-05-06T05:06:19.054Z,4.62
2019-05-06T05:08:53.113Z,4.62
2019-05-06T05:11:38.861Z,5.10
2019-05-06T05:14:33.548Z,4.80
2019-05-06T05:17:17.649Z,5.30
2019-05-06T05:19:49.139Z,5.15
2019-05-06T05:22:21.903Z,4.80
2019-05-06T05:24:53.539Z,5.45
2019-05-06T05:27:24.995Z,5.45
2019-05-06T05:29:56.181Z,5.28
2019-05-06T05:32:27.328Z,5.80
2019-05-06T05:34:59.288Z,4.92
2019-05-06T05:37:32.838Z,5.30
2019-05-06T05:40:04.635Z,5.70
2019-05-06T05:42:51.643Z,5.60
2019-05-06T05:45:23.103Z,5.00
2019-05-06T05:47:56.082Z,5.67
2019-05-06T05:50:32.492Z,5.62
2019-05-06T05:53:04.809Z,4.95
2019-05-06T05:55:35.991Z,5.17
2019-05-06T05:58:07.195Z,5.28
2019-05-06T06:00:38.355Z,5.05
2019-05-06T06:03:09.851Z,5.08
2019-05-06T06:05:42.796Z,5.28
2019-05-06T06:08:14.109Z,5.30
2019-05-06T06:11:09.704Z,4.87
2019-05-06T06:13:43.228Z,4.97
2019-05-06T06:16:42.311Z,5.00
2019-05-06T06:19:38.206Z,5.40
2019-05-06T06:22:15.465Z,4.97
2019-05-06T06:24:46.947Z,4.87
2019-05-06T06:27:18.990Z,4.60
2019-05-06T06:29:52.606Z,4.67
2019-05-06T06:32:25.879Z,4.87
2019-05-06T06:35:32.382Z,4.65
2019-05-06T06:38:13.051Z,4.60
2019-05-06T06:40:44.550Z,4.78
2019-05-06T06:43:20.214Z,5.25
2019-05-06T06:45:53.077Z,5.67
2019-05-06T06:48:24.456Z,5.20
2019-05-06T06:50:56.125Z,5.22
2019-05-06T06:53:33.743Z,5.25
2019-05-06T06:56:26.045Z,4.50
2019-05-06T06:59:13.348Z,4.20
2019-05-06T07:02:05.222Z,4.08
2019-05-06T07:04:45.352Z,3.70
2019-05-06T07:07:18.111Z,3.80
2019-05-06T07:09:49.290Z,4.00
2019-05-06T07:12:23.310Z,3.98
2019-05-06T07:15:02.369Z,3.90
2019-05-06T07:17:33.255Z,3.20
2019-05-06T07:20:08.190Z,3.67
2019-05-06T07:22:39.497Z,4.10
2019-05-06T07:25:12.791Z,3.30
2019-05-06T07:27:45.146Z,3.65
2019-05-06T07:30:16.832Z,3.50
2019-05-06T07:35:18.428Z,5.35
2019-05-06T07:37:49.986Z,4.20
2019-05-06T07:40:22.061Z,3.90
2019-05-06T07:42:55.505Z,4.08
2019-05-06T07:45:42.365Z,3.17
2019-05-06T07:48:16.165Z,3.10
2019-05-06T07:50:49.223Z,3.40
2019-05-06T07:53:22.391Z,3.77
2019-05-06T07:55:56.800Z,3.00
2019-05-06T07:58:29.190Z,2.72
2019-05-06T08:01:02.626Z,2.90
2019-05-06T08:03:34.359Z,2.67
2019-05-06T08:06:05.657Z,2.60
2019-05-06T08:08:36.896Z,2.27
2019-05-06T08:11:08.133Z,2.45
2019-05-06T08:13:39.570Z,2.67
2019-05-06T08:16:13.170Z,1.95
2019-05-06T08:18:44.857Z,2.00
2019-05-06T08:21:22.355Z,2.02
2019-05-06T08:23:53.761Z,2.00
2019-05-06T08:26:24.950Z,1.95
2019-05-06T08:28:56.581Z,2.77
2019-05-06T08:31:28.125Z,2.58
2019-05-06T08:33:59.301Z,2.47
2019-05-06T08:36:55.606Z,2.12
2019-05-06T08:39:27.118Z,2.00
2019-05-06T08:41:58.322Z,1.90
2019-05-06T08:44:29.524Z,2.22
2019-05-06T08:47:02.526Z,2.30
2019-05-06T08:49:52.918Z,1.72
2019-05-06T08:52:27.389Z,2.55
2019-05-06T08:55:02.357Z,2.10
2019-05-06T08:57:34.233Z,2.25
2019-05-06T09:00:06.020Z,1.85
2019-05-06T09:02:37.575Z,2.00
2019-05-06T09:05:08.761Z,2.20
2019-05-06T09:07:52.359Z,1.80
2019-05-06T09:10:24.703Z,1.72
2019-05-06T09:12:55.974Z,1.95
2019-05-06T09:15:27.234Z,1.75
2019-05-06T09:17:58.837Z,2.05
2019-05-06T09:20:32.463Z,1.95
2019-05-06T09:23:04.695Z,2.22
2019-05-06T09:25:36.743Z,2.33
2019-05-06T09:31:29.110Z,2.25
2019-05-06T09:34:06.495Z,1.85
2019-05-06T09:36:43.905Z,1.82
2019-05-06T09:39:12.975Z,2.80
2019-05-06T09:41:47.221Z,2.08
2019-05-06T09:44:17.260Z,2.40
2019-05-06T09:46:48.800Z,2.08
2019-05-06T09:49:23.781Z,2.15
2019-05-06T09:51:55.916Z,2.10
2019-05-06T09:54:34.585Z,2.25
2019-05-06T09:57:13.032Z,2.20
2019-05-06T09:59:44.581Z,2.22
2019-05-06T10:02:16.142Z,4.67
2019-05-06T10:04:48.236Z,3.15
2019-05-06T10:07:22.397Z,3.05
2019-05-06T10:09:53.501Z,2.80
2019-05-06T10:12:25.106Z,4.00
2019-05-06T10:14:56.984Z,2.90
2019-05-06T10:17:28.581Z,3.33
2019-05-06T10:20:02.593Z,3.10
2019-05-06T10:22:33.287Z,3.15
2019-05-06T10:25:04.977Z,2.92
2019-05-06T10:27:38.895Z,2.40
2019-05-06T10:30:12.527Z,3.20
2019-05-06T10:32:53.728Z,2.52
2019-05-06T10:35:29.153Z,3.00
2019-05-06T10:38:07.726Z,2.90
2019-05-06T10:40:57.225Z,2.47
2019-05-06T10:43:52.554Z,2.92
2019-05-06T10:46:24.203Z,2.47
2019-05-06T10:48:55.688Z,2.58
2019-05-06T10:51:57.694Z,2.85
2019-05-06T10:54:28.955Z,2.77
2019-05-06T10:57:28.538Z,2.65
2019-05-06T10:59:59.740Z,2.80
2019-05-06T11:02:58.712Z,2.20
2019-05-06T11:05:32.388Z,2.20
2019-05-06T11:08:03.715Z,2.30
2019-05-06T11:10:41.079Z,2.60
2019-05-06T11:13:09.169Z,2.12
2019-05-06T11:15:43.124Z,2.50
2019-05-06T11:18:13.898Z,2.08
2019-05-06T11:20:45.537Z,2.27
2019-05-06T11:23:16.714Z,2.20
2019-05-06T11:25:48.261Z,2.42
2019-05-06T11:28:37.279Z,2.12
2019-05-06T11:31:27.581Z,2.15
2019-05-06T11:34:17.995Z,2.40
2019-05-06T11:36:52.475Z,2.30
2019-05-06T11:39:24.140Z,2.20
2019-05-06T11:42:14.978Z,2.30
2019-05-06T11:44:29.102Z,2.10
2019-05-06T11:47:00.303Z,2.10
2019-05-06T11:49:32.648Z,2.20
2019-05-06T11:52:04.101Z,2.60
2019-05-06T11:54:36.810Z,2.87
2019-05-06T11:57:12.246Z,3.58
2019-05-06T11:59:43.514Z,3.20
2019-05-06T12:04:47.787Z,2.90
2019-05-06T12:07:18.982Z,2.67
2019-05-06T12:09:50.190Z,2.62
2019-05-06T12:12:23.324Z,3.17
2019-05-06T12:14:54.670Z,2.67
2019-05-06T12:17:26.155Z,2.72
2019-05-06T12:19:57.423Z,2.40
2019-05-06T12:22:35.698Z,2.77
2019-05-06T12:25:11.755Z,2.47
2019-05-06T12:27:44.942Z,2.60
2019-05-06T12:30:23.095Z,2.83
2019-05-06T12:33:13.072Z,2.65
2019-05-06T12:35:47.677Z,2.25
2019-05-06T12:38:30.380Z,2.45
2019-05-06T12:40:59.888Z,2.35
2019-05-06T12:43:50.103Z,2.67
2019-05-06T12:46:24.834Z,2.80
2019-05-06T12:48:56.092Z,3.25
2019-05-06T12:51:27.357Z,2.67
2019-05-06T12:53:58.638Z,2.77
2019-05-06T12:56:30.247Z,2.80
2019-05-06T12:59:02.265Z,2.58
2019-05-06T13:01:34.862Z,3.10
2019-05-06T13:04:06.077Z,2.52
2019-05-06T13:06:38.023Z,2.80
2019-05-06T13:09:12.739Z,2.92
2019-05-06T13:11:44.190Z,3.05
2019-05-06T13:14:16.283Z,3.10
2019-05-06T13:16:47.476Z,3.05
2019-05-06T13:19:18.951Z,3.05
2019-05-06T13:21:50.121Z,3.62
2019-05-06T13:24:22.853Z,3.05
2019-05-06T13:26:54.157Z,3.27
2019-05-06T13:29:28.686Z,3.20
2019-05-06T13:32:02.028Z,4.28
2019-05-06T13:34:34.025Z,3.72
2019-05-06T13:39:37.187Z,3.22
2019-05-06T13:44:38.488Z,3.10
2019-05-06T13:47:13.267Z,3.15
2019-05-06T13:49:54.422Z,3.20
2019-05-06T13:52:27.416Z,3.37
2019-05-06T13:55:01.903Z,2.92
2019-05-06T13:57:33.132Z,2.62
2019-05-06T14:00:05.525Z,3.30
2019-05-06T14:02:49.522Z,2.87
2019-05-06T14:05:21.419Z,3.20
2019-05-06T14:07:53.091Z,3.08
2019-05-06T14:10:24.911Z,3.15
2019-05-06T14:15:26.507Z,3.05
2019-05-06T14:17:58.002Z,3.10
2019-05-06T14:20:29.598Z,3.35
2019-05-06T14:23:02.289Z,2.52
2019-05-06T14:25:52.831Z,3.47
2019-05-06T14:28:33.165Z,3.52
2019-05-06T14:31:16.238Z,3.30
2019-05-06T14:33:47.529Z,3.10
2019-05-06T14:36:18.778Z,3.00
2019-05-06T14:38:53.370Z,3.08
2019-05-06T14:41:27.387Z,3.08
2019-05-06T14:43:59.106Z,2.58
2019-05-06T14:46:51.547Z,2.90
2019-05-06T14:49:22.798Z,2.95
2019-05-06T14:51:54.671Z,2.87
2019-05-06T14:54:26.291Z,2.83
2019-05-06T14:57:02.749Z,2.87
2019-05-06T14:59:33.978Z,2.80
2019-05-06T15:02:05.612Z,3.12
2019-05-06T15:04:37.724Z,3.10
2019-05-06T15:07:08.923Z,2.85
2019-05-06T15:09:55.369Z,3.30
2019-05-06T15:12:13.432Z,3.08
2019-05-06T15:14:46.129Z,3.65
2019-05-06T15:17:18.029Z,2.98
2019-05-06T15:22:19.787Z,2.95
2019-05-06T15:24:53.565Z,3.30
2019-05-06T15:27:25.891Z,3.15
2019-05-06T15:30:03.131Z,3.02
2019-05-06T15:32:36.230Z,3.90
2019-05-06T15:35:35.823Z,3.70
2019-05-06T15:38:12.799Z,3.80
2019-05-06T15:40:44.252Z,3.77
2019-05-06T15:43:15.864Z,3.80
2019-05-06T15:45:47.315Z,3.80
2019-05-06T15:48:18.828Z,3.42
2019-05-06T15:50:50.064Z,3.25
2019-05-06T15:53:22.464Z,3.62
2019-05-06T15:55:54.079Z,3.52
2019-05-06T15:58:25.764Z,3.35
2019-05-06T16:00:57.329Z,3.52
2019-05-06T16:03:28.501Z,3.10
2019-05-06T16:06:01.967Z,3.62
2019-05-06T16:08:33.548Z,3.47
2019-05-06T16:11:04.747Z,3.70
2019-05-06T16:13:35.913Z,3.98
2019-05-06T16:16:07.347Z,3.75
2019-05-06T16:18:42.331Z,3.37
2019-05-06T16:21:13.543Z,3.67
2019-05-06T16:23:54.914Z,3.22
2019-05-06T16:26:25.926Z,3.30
2019-05-06T16:28:58.169Z,3.33
2019-05-06T16:31:29.807Z,2.98
2019-05-06T16:34:03.112Z,3.05
2019-05-06T16:36:34.433Z,3.10
2019-05-06T16:39:07.942Z,2.62
2019-05-06T16:41:39.366Z,2.70
2019-05-06T16:44:12.695Z,3.10
2019-05-06T16:46:43.743Z,2.80
2019-05-06T16:49:14.903Z,2.77
2019-05-06T16:51:46.052Z,2.60
2019-05-06T16:54:17.642Z,2.60
2019-05-06T16:57:02.630Z,2.75
2019-05-06T16:59:33.891Z,2.65
2019-05-06T17:02:13.785Z,2.37
2019-05-06T17:04:49.720Z,2.90
2019-05-06T17:07:22.184Z,2.45
2019-05-06T17:09:54.602Z,3.20
2019-05-06T17:12:26.063Z,3.50
2019-05-06T17:14:57.520Z,3.65
2019-05-06T17:17:42.743Z,3.42
2019-05-06T17:20:03.123Z,3.83
2019-05-06T17:22:35.303Z,3.25
2019-05-06T17:25:07.080Z,4.00
2019-05-06T17:27:40.504Z,3.62
2019-05-06T17:30:40.718Z,3.55
2019-05-06T17:33:29.593Z,4.12
2019-05-06T17:36:03.068Z,4.00
2019-05-06T17:38:39.121Z,4.45
2019-05-06T17:41:12.361Z,3.90
2019-05-06T17:43:45.296Z,4.55
2019-05-06T17:46:19.399Z,4.97
2019-05-06T17:49:03.051Z,4.97
2019-05-06T17:51:42.434Z,5.22
2019-05-06T17:54:13.237Z,6.85
2019-05-06T17:56:45.049Z,6.08
2019-05-06T18:01:48.671Z,5.58
2019-05-06T18:04:22.598Z,6.10
2019-05-06T18:06:53.583Z,5.67
2019-05-06T18:11:58.752Z,5.50
2019-05-06T18:14:29.868Z,5.42
2019-05-06T18:17:03.443Z,5.45
2019-05-06T18:19:34.724Z,5.55
2019-05-06T18:22:06.671Z,6.10
2019-05-06T18:24:38.193Z,5.90
2019-05-06T18:27:09.703Z,5.47
2019-05-06T18:29:42.402Z,5.78
2019-05-06T18:32:13.767Z,4.95
2019-05-06T18:34:45.376Z,5.85
2019-05-06T18:37:16.612Z,5.45
2019-05-06T18:39:49.388Z,5.85
2019-05-06T18:42:23.559Z,5.72
2019-05-06T18:44:53.828Z,5.90
2019-05-06T18:47:25.781Z,6.55
2019-05-06T18:49:56.989Z,6.37
2019-05-06T18:52:28.230Z,5.08
2019-05-06T18:54:59.696Z,5.90
2019-05-06T18:57:32.475Z,5.80
2019-05-06T19:00:05.071Z,5.75
2019-05-06T19:02:39.293Z,6.10
2019-05-06T19:07:46.920Z,6.00
2019-05-06T19:10:27.433Z,6.03
2019-05-06T19:12:59.004Z,6.47
2019-05-06T19:15:32.749Z,6.42
2019-05-06T19:18:04.175Z,5.72
2019-05-06T19:20:35.725Z,6.05
2019-05-06T19:23:06.955Z,6.25
2019-05-06T19:25:38.139Z,6.03
2019-05-06T19:28:09.597Z,5.72
2019-05-06T19:30:41.199Z,6.22
2019-05-06T19:33:12.480Z,6.20
2019-05-06T19:35:43.773Z,6.50
2019-05-06T19:38:15.300Z,6.72
2019-05-06T19:40:46.489Z,6.10
2019-05-06T19:43:18.058Z,6.17
2019-05-06T19:45:49.224Z,7.05
2019-05-06T19:48:22.194Z,6.03
2019-05-06T19:50:53.628Z,6.83
2019-05-06T19:53:25.187Z,6.80
2019-05-06T19:55:56.778Z,6.30
2019-05-06T19:58:27.944Z,6.70
2019-05-06T20:00:59.563Z,6.60
2019-05-06T20:03:32.764Z,7.25
2019-05-06T20:06:24.343Z,6.30
2019-05-06T20:09:03.995Z,6.62
2019-05-06T20:11:39.754Z,6.95
2019-05-06T20:14:13.427Z,6.55
2019-05-06T20:16:44.437Z,7.22
2019-05-06T20:19:29.816Z,7.00
2019-05-06T20:21:52.792Z,6.90
2019-05-06T20:24:24.326Z,7.03
2019-05-06T20:26:55.504Z,7.03
2019-05-06T20:29:27.377Z,6.72
2019-05-06T20:31:58.836Z,7.25
2019-05-06T20:34:32.088Z,7.12
2019-05-06T20:37:03.338Z,6.12
2019-05-06T20:39:35.386Z,6.42
2019-05-06T20:42:06.910Z,6.50
2019-05-06T20:44:38.100Z,6.83
2019-05-06T20:47:13.039Z,6.22
2019-05-06T20:49:46.688Z,6.35
2019-05-06T20:52:18.219Z,6.35
2019-05-06T20:54:49.882Z,5.60
2019-05-06T20:57:22.953Z,6.45
2019-05-06T20:59:54.388Z,6.37
2019-05-06T21:02:26.547Z,5.90
2019-05-06T21:04:58.996Z,6.15
2019-05-06T21:07:32.304Z,5.80
2019-05-06T21:10:04.012Z,6.05
2019-05-06T21:12:36.955Z,5.90
2019-05-06T21:15:09.608Z,5.67
2019-05-06T21:17:42.041Z,6.15
2019-05-06T21:20:14.156Z,5.58
2019-05-06T21:22:48.595Z,5.45
2019-05-06T21:25:18.741Z,5.60
2019-05-06T21:27:50.231Z,5.90
2019-05-06T21:30:21.392Z,5.17
2019-05-06T21:32:52.886Z,5.80
2019-05-06T21:35:24.045Z,5.90
2019-05-06T21:37:55.219Z,4.90
2019-05-06T21:40:26.676Z,5.40
2019-05-06T21:42:58.378Z,4.95
2019-05-06T21:45:29.561Z,5.03
2019-05-06T21:48:02.763Z,5.03
2019-05-06T21:50:34.210Z,4.50
2019-05-06T21:53:06.582Z,4.22
2019-05-06T21:55:37.755Z,4.17
2019-05-06T21:58:08.952Z,4.30
2019-05-06T22:00:57.875Z,5.03
2019-05-06T22:03:29.621Z,4.70
2019-05-06T22:06:02.220Z,4.83
2019-05-06T22:08:33.989Z,5.03
2019-05-06T22:11:05.323Z,4.72
2019-05-06T22:13:36.558Z,4.70
2019-05-06T22:16:07.760Z,5.53
2019-05-06T22:18:39.284Z,5.22
2019-05-06T22:21:22.508Z,5.05
2019-05-06T22:23:55.819Z,4.92
2019-05-06T22:26:27.945Z,4.65
2019-05-06T22:28:59.458Z,4.67
2019-05-06T22:31:33.046Z,5.08
2019-05-06T22:34:04.770Z,5.12
2019-05-06T22:36:35.961Z,4.60
2019-05-06T22:39:07.552Z,4.40
2019-05-06T22:41:40.321Z,4.53
2019-05-06T22:44:14.077Z,4.90
2019-05-06T22:46:45.968Z,4.35
2019-05-06T22:49:17.122Z,5.28
2019-05-06T22:51:52.050Z,4.72
2019-05-06T22:54:24.631Z,4.97
2019-05-06T22:56:56.365Z,4.90
2019-05-06T22:59:27.952Z,4.20
2019-05-06T23:02:22.594Z,4.12
2019-05-06T23:04:57.418Z,4.53
2019-05-06T23:07:28.865Z,4.42
2019-05-06T23:10:00.364Z,4.15
2019-05-06T23:12:32.548Z,4.15
2019-05-06T23:15:04.023Z,4.72
2019-05-06T23:17:35.277Z,3.95
2019-05-06T23:20:06.811Z,4.50
2019-05-06T23:22:38.920Z,4.42
2019-05-06T23:25:12.524Z,4.22
2019-05-06T23:27:44.277Z,4.62
2019-05-06T23:30:15.912Z,4.05
2019-05-06T23:32:47.070Z,4.05
2019-05-06T23:35:19.495Z,4.05
2019-05-06T23:38:26.032Z,4.83
2019-05-06T23:41:32.830Z,4.47
2019-05-06T23:44:45.597Z,3.90
2019-05-06T23:47:49.645Z,4.67
2019-05-06T23:50:56.113Z,4.35
2019-05-06T23:54:03.166Z,4.60
2019-05-06T23:56:43.994Z,4.17
2019-05-06T23:59:17.385Z,4.45
